Marida Marigold — V7PO7 — position and weather

sailwx.info

Track history (hours):
 
Tides and Currents Weather Stations Pressure Air Temp Water Temp Dewpoint Dewpoint Depression Visibility Wind Speed Wind Dir Waves Ship Positions

Marida Marigold

Last reported at 2018-Jun-08 04:15 UTC. Time now 2018-Jun-25 03:58 UTC.
Position S 12°35' E 009°52'.
Warning: this ship's position is 16 days out of date.

Length 128 m; draft 8.9 m.

Type: Ship. MMSI: 538005559.

Date/timePositionNaut miles runAvg speedWind from/ knotsBaromVisibWave heightAir tempDewpointWater temp
2018-Jun-08 04:15S 12°35' E 009°52'84 9.4
2018-Jun-07 19:18S 11°13' E 009°35'5 9.7
2018-Jun-07 18:46S 11°08' E 009°34'3 9.5
2018-Jun-07 18:25S 11°05' E 009°33'10 9.6
2018-Jun-07 17:21S 10°55' E 009°31'36 9.5
2018-Jun-07 13:36S 10°20' E 009°23'1 9.6
2018-Jun-07 13:30S 10°19' E 009°23'7 9.7
2018-Jun-07 12:44S 10°12' E 009°21'2 9.7
2018-Jun-07 12:30S 10°10' E 009°21'5 9.7
2018-Jun-07 11:59S 10°05' E 009°20'5 9.6
2018-Jun-07 11:30S 10°00' E 009°19'40 9.4
2018-Jun-07 07:15S 09°21' E 009°10'  
2018-May-31 23:21N 05°60' E 001°15'0 0.0
2018-May-31 22:48N 05°60' E 001°15'0 0.0
2018-May-31 22:27N 05°60' E 001°15'0 0.2
2018-May-31 21:53N 05°60' E 001°15'2 3.9
2018-May-31 21:29N 06°01' E 001°15'1 1.5
2018-May-31 20:41N 06°02' E 001°16'0 0.0
2018-May-31 20:29N 06°02' E 001°16'0 0.0
2018-May-31 19:56N 06°02' E 001°16'0 0.0
2018-May-31 17:50N 06°02' E 001°16'0 0.0
2018-May-31 07:05N 06°02' E 001°16'0 0.0
2018-May-31 06:44N 06°02' E 001°16'0 0.0
2018-May-31 05:53N 06°02' E 001°16'0 0.0
2018-May-31 05:26N 06°02' E 001°16'0 0.0
2018-May-31 02:44N 06°02' E 001°16'0 1.0
2018-May-31 02:30N 06°02' E 001°16'0 0.4
2018-May-31 01:49N 06°02' E 001°16'0 0.4
2018-May-31 01:27N 06°02' E 001°16'0 0.4
2018-May-31 00:53N 06°02' E 001°15'  
Track history (hours):
 
Tides and Currents Weather Stations Pressure Air Temp Water Temp Dewpoint Dewpoint Depression Visibility Wind Speed Wind Dir Waves Ship Positions

Marida Marigold

Last reported at 2018-Jun-08 04:15 UTC. Time now 2018-Jun-25 03:58 UTC.
Position S 12°35' E 009°52'.
Warning: this ship's position is 16 days out of date.

Length 128 m; draft 8.9 m.

Type: Ship. MMSI: 538005559.

Date/timePositionNaut miles runAvg speedWind from/ knotsBaromVisibWave heightAir tempDewpointWater temp
2018-Jun-08 04:15S 12°35' E 009°52'84 9.4
2018-Jun-07 19:18S 11°13' E 009°35'5 9.7
2018-Jun-07 18:46S 11°08' E 009°34'3 9.5
2018-Jun-07 18:25S 11°05' E 009°33'10 9.6
2018-Jun-07 17:21S 10°55' E 009°31'36 9.5
2018-Jun-07 13:36S 10°20' E 009°23'1 9.6
2018-Jun-07 13:30S 10°19' E 009°23'7 9.7
2018-Jun-07 12:44S 10°12' E 009°21'2 9.7
2018-Jun-07 12:30S 10°10' E 009°21'5 9.7
2018-Jun-07 11:59S 10°05' E 009°20'5 9.6
2018-Jun-07 11:30S 10°00' E 009°19'40 9.4
2018-Jun-07 07:15S 09°21' E 009°10'  
2018-May-31 23:21N 05°60' E 001°15'0 0.0
2018-May-31 22:48N 05°60' E 001°15'0 0.0
2018-May-31 22:27N 05°60' E 001°15'0 0.2
2018-May-31 21:53N 05°60' E 001°15'2 3.9
2018-May-31 21:29N 06°01' E 001°15'1 1.5
2018-May-31 20:41N 06°02' E 001°16'0 0.0
2018-May-31 20:29N 06°02' E 001°16'0 0.0
2018-May-31 19:56N 06°02' E 001°16'0 0.0
2018-May-31 17:50N 06°02' E 001°16'0 0.0
2018-May-31 07:05N 06°02' E 001°16'0 0.0
2018-May-31 06:44N 06°02' E 001°16'0 0.0
2018-May-31 05:53N 06°02' E 001°16'0 0.0
2018-May-31 05:26N 06°02' E 001°16'0 0.0
2018-May-31 02:44N 06°02' E 001°16'0 1.0
2018-May-31 02:30N 06°02' E 001°16'0 0.4
2018-May-31 01:49N 06°02' E 001°16'0 0.4
2018-May-31 01:27N 06°02' E 001°16'0 0.4
2018-May-31 00:53N 06°02' E 001°15'  

Dump ship's entire track history